sensor_id;sensor_type;location;lat;lon;timestamp;P1;durP1;ratioP1;P2;durP2;ratioP2
16845;SDS011;8539;53.188;8.696;2023-02-21T00:01:57;37.53;;;22.23;;
16845;SDS011;8539;53.188;8.696;2023-02-21T00:04:42;31.75;;;20.40;;
16845;SDS011;8539;53.188;8.696;2023-02-21T00:07:27;37.25;;;21.25;;
16845;SDS011;8539;53.188;8.696;2023-02-21T00:10:13;38.33;;;21.50;;
16845;SDS011;8539;53.188;8.696;2023-02-21T00:12:58;35.50;;;20.55;;
16845;SDS011;8539;53.188;8.696;2023-02-21T00:15:43;36.72;;;21.58;;
16845;SDS011;8539;53.188;8.696;2023-02-21T00:18:27;36.08;;;21.10;;
16845;SDS011;8539;53.188;8.696;2023-02-21T00:21:17;37.28;;;23.50;;
16845;SDS011;8539;53.188;8.696;2023-02-21T00:24:02;33.20;;;20.27;;
16845;SDS011;8539;53.188;8.696;2023-02-21T00:26:47;37.28;;;21.00;;
16845;SDS011;8539;53.188;8.696;2023-02-21T00:29:32;38.72;;;21.80;;
16845;SDS011;8539;53.188;8.696;2023-02-21T00:32:17;38.00;;;21.15;;
16845;SDS011;8539;53.188;8.696;2023-02-21T00:35:02;37.55;;;20.98;;
16845;SDS011;8539;53.188;8.696;2023-02-21T00:37:50;34.60;;;21.00;;
16845;SDS011;8539;53.188;8.696;2023-02-21T00:40:35;39.97;;;21.08;;
16845;SDS011;8539;53.188;8.696;2023-02-21T00:43:26;36.92;;;19.48;;
16845;SDS011;8539;53.188;8.696;2023-02-21T00:46:14;29.08;;;18.92;;
16845;SDS011;8539;53.188;8.696;2023-02-21T00:48:59;34.15;;;20.13;;
16845;SDS011;8539;53.188;8.696;2023-02-21T00:51:44;34.38;;;20.02;;
16845;SDS011;8539;53.188;8.696;2023-02-21T00:54:29;33.97;;;18.90;;
16845;SDS011;8539;53.188;8.696;2023-02-21T00:57:14;33.45;;;18.05;;
16845;SDS011;8539;53.188;8.696;2023-02-21T00:59:59;29.63;;;18.67;;
16845;SDS011;8539;53.188;8.696;2023-02-21T01:02:43;27.42;;;17.60;;
16845;SDS011;8539;53.188;8.696;2023-02-21T01:05:28;27.73;;;19.45;;
16845;SDS011;8539;53.188;8.696;2023-02-21T01:08:12;30.55;;;18.08;;
16845;SDS011;8539;53.188;8.696;2023-02-21T01:10:57;30.00;;;16.55;;
16845;SDS011;8539;53.188;8.696;2023-02-21T01:13:41;28.85;;;17.02;;
16845;SDS011;8539;53.188;8.696;2023-02-21T01:16:30;28.90;;;16.25;;
16845;SDS011;8539;53.188;8.696;2023-02-21T01:19:16;26.05;;;15.50;;
16845;SDS011;8539;53.188;8.696;2023-02-21T01:22:02;32.38;;;16.58;;
16845;SDS011;8539;53.188;8.696;2023-02-21T01:24:48;28.85;;;15.52;;
16845;SDS011;8539;53.188;8.696;2023-02-21T01:27:34;29.73;;;14.05;;
16845;SDS011;8539;53.188;8.696;2023-02-21T01:30:18;25.77;;;14.57;;
16845;SDS011;8539;53.188;8.696;2023-02-21T01:33:03;27.33;;;16.00;;
16845;SDS011;8539;53.188;8.696;2023-02-21T01:35:47;29.88;;;14.02;;
16845;SDS011;8539;53.188;8.696;2023-02-21T01:38:33;23.33;;;13.85;;
16845;SDS011;8539;53.188;8.696;2023-02-21T01:41:18;26.45;;;14.65;;
16845;SDS011;8539;53.188;8.696;2023-02-21T01:44:05;25.50;;;13.20;;
16845;SDS011;8539;53.188;8.696;2023-02-21T01:47:10;29.45;;;14.80;;
16845;SDS011;8539;53.188;8.696;2023-02-21T01:49:55;30.45;;;15.52;;
16845;SDS011;8539;53.188;8.696;2023-02-21T01:52:41;22.42;;;12.63;;
16845;SDS011;8539;53.188;8.696;2023-02-21T01:55:26;28.35;;;13.82;;
16845;SDS011;8539;53.188;8.696;2023-02-21T01:58:11;28.17;;;14.23;;
16845;SDS011;8539;53.188;8.696;2023-02-21T02:00:55;27.70;;;13.93;;
16845;SDS011;8539;53.188;8.696;2023-02-21T02:03:40;25.25;;;13.73;;
16845;SDS011;8539;53.188;8.696;2023-02-21T02:06:25;22.80;;;13.73;;
16845;SDS011;8539;53.188;8.696;2023-02-21T02:09:14;31.63;;;16.38;;
16845;SDS011;8539;53.188;8.696;2023-02-21T02:12:08;20.10;;;13.47;;
16845;SDS011;8539;53.188;8.696;2023-02-21T02:35:07;26.95;;;14.38;;
16845;SDS011;8539;53.188;8.696;2023-02-21T02:37:47;32.80;;;14.95;;
16845;SDS011;8539;53.188;8.696;2023-02-21T02:43:02;31.23;;;13.70;;
16845;SDS011;8539;53.188;8.696;2023-02-21T02:45:59;24.70;;;14.82;;
16845;SDS011;8539;53.188;8.696;2023-02-21T02:51:35;26.13;;;14.25;;
16845;SDS011;8539;53.188;8.696;2023-02-21T02:54:01;20.77;;;13.45;;
16845;SDS011;8539;53.188;8.696;2023-02-21T02:56:28;27.85;;;14.50;;
16845;SDS011;8539;53.188;8.696;2023-02-21T02:58:59;30.45;;;14.18;;
16845;SDS011;8539;53.188;8.696;2023-02-21T03:07:25;25.58;;;14.77;;
16845;SDS011;8539;53.188;8.696;2023-02-21T03:12:47;23.63;;;13.10;;
16845;SDS011;8539;53.188;8.696;2023-02-21T03:20:56;31.30;;;14.48;;
16845;SDS011;8539;53.188;8.696;2023-02-21T03:23:25;28.45;;;12.57;;
16845;SDS011;8539;53.188;8.696;2023-02-21T03:25:55;27.58;;;13.80;;
16845;SDS011;8539;53.188;8.696;2023-02-21T03:28:24;22.60;;;13.35;;
16845;SDS011;8539;53.188;8.696;2023-02-21T03:30:52;25.23;;;14.27;;
16845;SDS011;8539;53.188;8.696;2023-02-21T03:33:20;30.92;;;16.95;;
16845;SDS011;8539;53.188;8.696;2023-02-21T03:35:47;24.50;;;12.88;;
16845;SDS011;8539;53.188;8.696;2023-02-21T03:38:13;25.00;;;12.70;;
16845;SDS011;8539;53.188;8.696;2023-02-21T03:40:39;28.80;;;13.00;;
16845;SDS011;8539;53.188;8.696;2023-02-21T03:43:05;32.60;;;14.27;;
16845;SDS011;8539;53.188;8.696;2023-02-21T03:45:32;27.33;;;12.82;;
16845;SDS011;8539;53.188;8.696;2023-02-21T03:47:59;28.45;;;12.88;;
16845;SDS011;8539;53.188;8.696;2023-02-21T03:50:25;28.33;;;13.02;;
16845;SDS011;8539;53.188;8.696;2023-02-21T03:52:51;28.25;;;15.40;;
16845;SDS011;8539;53.188;8.696;2023-02-21T03:55:18;26.25;;;13.48;;
16845;SDS011;8539;53.188;8.696;2023-02-21T03:57:44;23.85;;;13.13;;
16845;SDS011;8539;53.188;8.696;2023-02-21T04:00:11;18.73;;;11.85;;
16845;SDS011;8539;53.188;8.696;2023-02-21T04:02:38;21.67;;;13.95;;
16845;SDS011;8539;53.188;8.696;2023-02-21T04:05:04;24.38;;;13.63;;
16845;SDS011;8539;53.188;8.696;2023-02-21T04:07:31;19.80;;;12.35;;
16845;SDS011;8539;53.188;8.696;2023-02-21T04:09:57;24.88;;;12.68;;
16845;SDS011;8539;53.188;8.696;2023-02-21T04:12:23;24.98;;;12.98;;
16845;SDS011;8539;53.188;8.696;2023-02-21T04:14:50;21.60;;;11.95;;
16845;SDS011;8539;53.188;8.696;2023-02-21T04:17:21;19.73;;;11.65;;
16845;SDS011;8539;53.188;8.696;2023-02-21T04:19:47;23.98;;;12.27;;
16845;SDS011;8539;53.188;8.696;2023-02-21T04:22:13;26.58;;;12.38;;
16845;SDS011;8539;53.188;8.696;2023-02-21T04:24:39;21.85;;;12.15;;
16845;SDS011;8539;53.188;8.696;2023-02-21T04:27:05;18.35;;;12.73;;
16845;SDS011;8539;53.188;8.696;2023-02-21T04:29:31;23.50;;;13.68;;
16845;SDS011;8539;53.188;8.696;2023-02-21T04:31:57;25.58;;;13.38;;
16845;SDS011;8539;53.188;8.696;2023-02-21T04:34:23;24.33;;;12.55;;
16845;SDS011;8539;53.188;8.696;2023-02-21T04:36:49;22.25;;;13.15;;
16845;SDS011;8539;53.188;8.696;2023-02-21T04:39:15;25.58;;;12.32;;
16845;SDS011;8539;53.188;8.696;2023-02-21T04:41:41;23.00;;;13.68;;
16845;SDS011;8539;53.188;8.696;2023-02-21T04:44:08;24.10;;;12.77;;
16845;SDS011;8539;53.188;8.696;2023-02-21T04:46:34;21.73;;;12.55;;
16845;SDS011;8539;53.188;8.696;2023-02-21T04:49:00;22.35;;;12.57;;
16845;SDS011;8539;53.188;8.696;2023-02-21T04:51:26;16.75;;;12.43;;
16845;SDS011;8539;53.188;8.696;2023-02-21T04:53:53;24.05;;;13.77;;
16845;SDS011;8539;53.188;8.696;2023-02-21T04:56:21;25.08;;;13.88;;
16845;SDS011;8539;53.188;8.696;2023-02-21T04:58:49;24.92;;;13.40;;
16845;SDS011;8539;53.188;8.696;2023-02-21T05:01:16;23.20;;;14.13;;
16845;SDS011;8539;53.188;8.696;2023-02-21T05:03:44;28.70;;;15.20;;
16845;SDS011;8539;53.188;8.696;2023-02-21T05:06:15;22.75;;;13.43;;
16845;SDS011;8539;53.188;8.696;2023-02-21T05:08:51;31.40;;;17.67;;
16845;SDS011;8539;53.188;8.696;2023-02-21T05:11:17;24.35;;;15.70;;
16845;SDS011;8539;53.188;8.696;2023-02-21T05:13:44;26.38;;;15.38;;
16845;SDS011;8539;53.188;8.696;2023-02-21T05:16:11;27.30;;;15.50;;
16845;SDS011;8539;53.188;8.696;2023-02-21T05:18:37;30.67;;;16.73;;
16845;SDS011;8539;53.188;8.696;2023-02-21T05:21:06;25.52;;;14.85;;
16845;SDS011;8539;53.188;8.696;2023-02-21T05:23:33;25.50;;;15.70;;
16845;SDS011;8539;53.188;8.696;2023-02-21T05:26:01;25.25;;;14.52;;
16845;SDS011;8539;53.188;8.696;2023-02-21T05:28:35;28.35;;;15.13;;
16845;SDS011;8539;53.188;8.696;2023-02-21T05:31:02;25.85;;;14.05;;
16845;SDS011;8539;53.188;8.696;2023-02-21T05:33:29;21.60;;;14.90;;
16845;SDS011;8539;53.188;8.696;2023-02-21T05:35:57;21.88;;;14.20;;
16845;SDS011;8539;53.188;8.696;2023-02-21T05:38:24;25.77;;;13.02;;
16845;SDS011;8539;53.188;8.696;2023-02-21T05:40:51;21.83;;;12.43;;
16845;SDS011;8539;53.188;8.696;2023-02-21T05:43:18;21.13;;;13.35;;
16845;SDS011;8539;53.188;8.696;2023-02-21T05:45:44;21.30;;;12.88;;
16845;SDS011;8539;53.188;8.696;2023-02-21T05:48:10;18.92;;;13.40;;
16845;SDS011;8539;53.188;8.696;2023-02-21T05:50:36;20.30;;;12.98;;
16845;SDS011;8539;53.188;8.696;2023-02-21T05:53:04;21.40;;;13.15;;
16845;SDS011;8539;53.188;8.696;2023-02-21T05:55:30;15.90;;;10.57;;
16845;SDS011;8539;53.188;8.696;2023-02-21T05:57:56;17.63;;;10.50;;
16845;SDS011;8539;53.188;8.696;2023-02-21T06:00:24;18.05;;;10.10;;
16845;SDS011;8539;53.188;8.696;2023-02-21T06:02:52;24.00;;;12.63;;
16845;SDS011;8539;53.188;8.696;2023-02-21T06:05:19;19.55;;;10.73;;
16845;SDS011;8539;53.188;8.696;2023-02-21T06:07:45;22.27;;;11.60;;
16845;SDS011;8539;53.188;8.696;2023-02-21T06:16:10;22.52;;;12.48;;
16845;SDS011;8539;53.188;8.696;2023-02-21T06:18:36;19.95;;;10.70;;
16845;SDS011;8539;53.188;8.696;2023-02-21T06:21:02;26.70;;;12.55;;
16845;SDS011;8539;53.188;8.696;2023-02-21T06:23:28;19.13;;;10.40;;
16845;SDS011;8539;53.188;8.696;2023-02-21T06:25:54;20.30;;;10.98;;
16845;SDS011;8539;53.188;8.696;2023-02-21T06:28:20;18.98;;;10.50;;
16845;SDS011;8539;53.188;8.696;2023-02-21T06:30:46;23.55;;;11.55;;
16845;SDS011;8539;53.188;8.696;2023-02-21T06:33:12;20.02;;;10.95;;
16845;SDS011;8539;53.188;8.696;2023-02-21T06:35:38;18.30;;;11.60;;
16845;SDS011;8539;53.188;8.696;2023-02-21T06:38:04;21.58;;;12.65;;
16845;SDS011;8539;53.188;8.696;2023-02-21T06:40:30;21.63;;;12.45;;
16845;SDS011;8539;53.188;8.696;2023-02-21T06:42:56;19.85;;;13.20;;
16845;SDS011;8539;53.188;8.696;2023-02-21T06:45:22;17.00;;;11.65;;
16845;SDS011;8539;53.188;8.696;2023-02-21T06:47:48;21.58;;;12.38;;
16845;SDS011;8539;53.188;8.696;2023-02-21T06:50:14;19.30;;;11.35;;
16845;SDS011;8539;53.188;8.696;2023-02-21T06:52:41;22.63;;;12.38;;
16845;SDS011;8539;53.188;8.696;2023-02-21T06:55:07;22.38;;;13.48;;
16845;SDS011;8539;53.188;8.696;2023-02-21T06:57:33;24.67;;;11.85;;
16845;SDS011;8539;53.188;8.696;2023-02-21T06:59:59;18.45;;;12.15;;
16845;SDS011;8539;53.188;8.696;2023-02-21T07:02:25;16.02;;;11.20;;
16845;SDS011;8539;53.188;8.696;2023-02-21T07:04:51;20.58;;;12.45;;
16845;SDS011;8539;53.188;8.696;2023-02-21T07:07:18;17.40;;;12.48;;
16845;SDS011;8539;53.188;8.696;2023-02-21T07:09:44;20.90;;;11.32;;
16845;SDS011;8539;53.188;8.696;2023-02-21T07:12:10;18.67;;;11.18;;
16845;SDS011;8539;53.188;8.696;2023-02-21T07:14:36;18.73;;;12.23;;
16845;SDS011;8539;53.188;8.696;2023-02-21T07:17:02;20.48;;;11.93;;
16845;SDS011;8539;53.188;8.696;2023-02-21T07:19:28;18.40;;;12.55;;
16845;SDS011;8539;53.188;8.696;2023-02-21T07:21:54;24.17;;;13.75;;
16845;SDS011;8539;53.188;8.696;2023-02-21T07:24:20;21.70;;;14.52;;
16845;SDS011;8539;53.188;8.696;2023-02-21T07:26:47;21.92;;;12.23;;
16845;SDS011;8539;53.188;8.696;2023-02-21T07:29:13;26.38;;;12.55;;
16845;SDS011;8539;53.188;8.696;2023-02-21T07:31:39;25.45;;;13.40;;
16845;SDS011;8539;53.188;8.696;2023-02-21T07:34:06;32.40;;;14.32;;
16845;SDS011;8539;53.188;8.696;2023-02-21T07:36:32;22.70;;;13.00;;
16845;SDS011;8539;53.188;8.696;2023-02-21T07:38:57;25.55;;;13.90;;
16845;SDS011;8539;53.188;8.696;2023-02-21T07:41:24;28.08;;;14.32;;
16845;SDS011;8539;53.188;8.696;2023-02-21T07:43:50;25.17;;;13.77;;
16845;SDS011;8539;53.188;8.696;2023-02-21T07:46:16;27.55;;;15.27;;
16845;SDS011;8539;53.188;8.696;2023-02-21T07:48:42;28.63;;;15.77;;
16845;SDS011;8539;53.188;8.696;2023-02-21T07:51:09;29.83;;;14.85;;
16845;SDS011;8539;53.188;8.696;2023-02-21T07:53:35;24.15;;;14.73;;
16845;SDS011;8539;53.188;8.696;2023-02-21T07:56:01;25.05;;;13.90;;
16845;SDS011;8539;53.188;8.696;2023-02-21T07:58:28;22.65;;;12.77;;
16845;SDS011;8539;53.188;8.696;2023-02-21T08:00:56;26.85;;;14.50;;
16845;SDS011;8539;53.188;8.696;2023-02-21T08:03:22;30.02;;;15.32;;
16845;SDS011;8539;53.188;8.696;2023-02-21T08:05:48;28.48;;;14.50;;
16845;SDS011;8539;53.188;8.696;2023-02-21T08:08:15;24.88;;;13.65;;
16845;SDS011;8539;53.188;8.696;2023-02-21T08:10:41;22.42;;;13.45;;
16845;SDS011;8539;53.188;8.696;2023-02-21T08:13:07;23.73;;;13.15;;
16845;SDS011;8539;53.188;8.696;2023-02-21T08:15:34;26.58;;;12.63;;
16845;SDS011;8539;53.188;8.696;2023-02-21T08:18:00;25.30;;;13.93;;
16845;SDS011;8539;53.188;8.696;2023-02-21T08:20:26;24.83;;;13.63;;
16845;SDS011;8539;53.188;8.696;2023-02-21T08:22:52;23.33;;;12.45;;
16845;SDS011;8539;53.188;8.696;2023-02-21T08:25:19;24.50;;;13.27;;
16845;SDS011;8539;53.188;8.696;2023-02-21T08:27:45;27.10;;;13.85;;
16845;SDS011;8539;53.188;8.696;2023-02-21T08:30:17;28.23;;;14.23;;
16845;SDS011;8539;53.188;8.696;2023-02-21T08:32:44;29.13;;;14.00;;
16845;SDS011;8539;53.188;8.696;2023-02-21T08:35:13;25.33;;;13.93;;
16845;SDS011;8539;53.188;8.696;2023-02-21T08:37:45;19.95;;;13.35;;
16845;SDS011;8539;53.188;8.696;2023-02-21T08:40:13;35.08;;;16.40;;
16845;SDS011;8539;53.188;8.696;2023-02-21T08:42:40;35.78;;;15.45;;
16845;SDS011;8539;53.188;8.696;2023-02-21T08:45:07;28.98;;;15.55;;
16845;SDS011;8539;53.188;8.696;2023-02-21T08:47:39;28.05;;;14.43;;
16845;SDS011;8539;53.188;8.696;2023-02-21T08:50:05;26.10;;;15.02;;
16845;SDS011;8539;53.188;8.696;2023-02-21T08:52:31;36.47;;;16.70;;
16845;SDS011;8539;53.188;8.696;2023-02-21T08:54:57;41.63;;;17.45;;
16845;SDS011;8539;53.188;8.696;2023-02-21T08:57:23;32.25;;;15.80;;
16845;SDS011;8539;53.188;8.696;2023-02-21T08:59:49;29.98;;;15.73;;
16845;SDS011;8539;53.188;8.696;2023-02-21T09:02:16;43.85;;;21.20;;
16845;SDS011;8539;53.188;8.696;2023-02-21T09:04:47;28.13;;;16.20;;
16845;SDS011;8539;53.188;8.696;2023-02-21T09:07:17;34.38;;;16.95;;
16845;SDS011;8539;53.188;8.696;2023-02-21T09:09:44;33.13;;;16.80;;
16845;SDS011;8539;53.188;8.696;2023-02-21T09:12:11;27.38;;;17.48;;
16845;SDS011;8539;53.188;8.696;2023-02-21T09:14:38;38.72;;;17.00;;
16845;SDS011;8539;53.188;8.696;2023-02-21T09:17:06;44.47;;;19.13;;
16845;SDS011;8539;53.188;8.696;2023-02-21T09:19:33;32.15;;;16.75;;
16845;SDS011;8539;53.188;8.696;2023-02-21T09:21:59;33.47;;;16.45;;
16845;SDS011;8539;53.188;8.696;2023-02-21T09:24:27;33.50;;;16.50;;
16845;SDS011;8539;53.188;8.696;2023-02-21T09:26:54;41.20;;;15.95;;
16845;SDS011;8539;53.188;8.696;2023-02-21T09:29:23;34.47;;;16.40;;
16845;SDS011;8539;53.188;8.696;2023-02-21T09:31:51;31.90;;;15.90;;
16845;SDS011;8539;53.188;8.696;2023-02-21T09:34:17;34.95;;;16.60;;
16845;SDS011;8539;53.188;8.696;2023-02-21T09:36:43;34.90;;;15.20;;
16845;SDS011;8539;53.188;8.696;2023-02-21T09:39:09;34.42;;;16.45;;
16845;SDS011;8539;53.188;8.696;2023-02-21T09:41:37;42.13;;;17.73;;
16845;SDS011;8539;53.188;8.696;2023-02-21T09:44:04;36.83;;;15.70;;
16845;SDS011;8539;53.188;8.696;2023-02-21T09:46:45;28.58;;;16.70;;
16845;SDS011;8539;53.188;8.696;2023-02-21T09:49:16;29.92;;;16.48;;
16845;SDS011;8539;53.188;8.696;2023-02-21T09:51:47;36.37;;;15.50;;
16845;SDS011;8539;53.188;8.696;2023-02-21T09:54:18;31.42;;;14.60;;
16845;SDS011;8539;53.188;8.696;2023-02-21T09:56:53;32.75;;;14.43;;
16845;SDS011;8539;53.188;8.696;2023-02-21T09:59:24;25.27;;;15.00;;
16845;SDS011;8539;53.188;8.696;2023-02-21T10:10:22;37.47;;;15.95;;
16845;SDS011;8539;53.188;8.696;2023-02-21T10:12:57;40.90;;;17.42;;
16845;SDS011;8539;53.188;8.696;2023-02-21T10:18:47;33.85;;;15.88;;
16845;SDS011;8539;53.188;8.696;2023-02-21T10:21:25;36.72;;;15.98;;
16845;SDS011;8539;53.188;8.696;2023-02-21T10:23:55;35.25;;;16.85;;
16845;SDS011;8539;53.188;8.696;2023-02-21T10:26:28;31.55;;;15.27;;
16845;SDS011;8539;53.188;8.696;2023-02-21T10:28:56;31.48;;;16.67;;
16845;SDS011;8539;53.188;8.696;2023-02-21T10:31:24;31.13;;;16.15;;
16845;SDS011;8539;53.188;8.696;2023-02-21T10:34:02;35.60;;;15.07;;
16845;SDS011;8539;53.188;8.696;2023-02-21T10:36:32;31.85;;;12.98;;
16845;SDS011;8539;53.188;8.696;2023-02-21T10:39:10;31.48;;;15.15;;
16845;SDS011;8539;53.188;8.696;2023-02-21T10:41:41;29.80;;;15.02;;
16845;SDS011;8539;53.188;8.696;2023-02-21T10:44:09;31.50;;;14.07;;
16845;SDS011;8539;53.188;8.696;2023-02-21T10:46:48;27.67;;;14.00;;
16845;SDS011;8539;53.188;8.696;2023-02-21T10:49:39;26.08;;;15.52;;
16845;SDS011;8539;53.188;8.696;2023-02-21T10:52:16;28.45;;;14.05;;
16845;SDS011;8539;53.188;8.696;2023-02-21T10:54:58;29.20;;;13.00;;
16845;SDS011;8539;53.188;8.696;2023-02-21T10:57:26;29.10;;;13.20;;
16845;SDS011;8539;53.188;8.696;2023-02-21T10:59:55;22.48;;;12.55;;
16845;SDS011;8539;53.188;8.696;2023-02-21T11:02:24;29.08;;;11.95;;
16845;SDS011;8539;53.188;8.696;2023-02-21T11:04:54;26.80;;;13.45;;
16845;SDS011;8539;53.188;8.696;2023-02-21T11:07:32;22.08;;;13.23;;
16845;SDS011;8539;53.188;8.696;2023-02-21T11:09:59;23.60;;;12.00;;
16845;SDS011;8539;53.188;8.696;2023-02-21T11:12:26;28.83;;;11.93;;
16845;SDS011;8539;53.188;8.696;2023-02-21T11:17:22;23.65;;;13.93;;
16845;SDS011;8539;53.188;8.696;2023-02-21T11:19:54;27.42;;;12.43;;
16845;SDS011;8539;53.188;8.696;2023-02-21T11:22:22;26.45;;;12.68;;
16845;SDS011;8539;53.188;8.696;2023-02-21T11:24:55;26.17;;;14.25;;
16845;SDS011;8539;53.188;8.696;2023-02-21T11:27:25;25.70;;;14.18;;
16845;SDS011;8539;53.188;8.696;2023-02-21T11:29:54;23.65;;;14.85;;
16845;SDS011;8539;53.188;8.696;2023-02-21T11:32:42;27.95;;;15.80;;
16845;SDS011;8539;53.188;8.696;2023-02-21T11:37:48;31.90;;;16.40;;
16845;SDS011;8539;53.188;8.696;2023-02-21T11:46:35;27.10;;;15.43;;
16845;SDS011;8539;53.188;8.696;2023-02-21T11:48:41;28.30;;;15.05;;
16845;SDS011;8539;53.188;8.696;2023-02-21T11:53:56;25.20;;;14.82;;
16845;SDS011;8539;53.188;8.696;2023-02-21T11:59:18;27.88;;;13.45;;
16845;SDS011;8539;53.188;8.696;2023-02-21T12:16:53;29.08;;;14.80;;
16845;SDS011;8539;53.188;8.696;2023-02-21T12:22:34;25.80;;;15.32;;
16845;SDS011;8539;53.188;8.696;2023-02-21T12:51:23;19.40;;;13.07;;
16845;SDS011;8539;53.188;8.696;2023-02-21T12:56:44;31.10;;;15.52;;
16845;SDS011;8539;53.188;8.696;2023-02-21T12:59:19;19.77;;;12.63;;
16845;SDS011;8539;53.188;8.696;2023-02-21T13:01:58;26.90;;;12.77;;
16845;SDS011;8539;53.188;8.696;2023-02-21T13:07:44;23.63;;;12.45;;
16845;SDS011;8539;53.188;8.696;2023-02-21T13:15:30;23.25;;;14.35;;
16845;SDS011;8539;53.188;8.696;2023-02-21T13:21:06;20.58;;;12.07;;
16845;SDS011;8539;53.188;8.696;2023-02-21T13:23:56;24.90;;;11.75;;
16845;SDS011;8539;53.188;8.696;2023-02-21T13:30:08;19.23;;;10.93;;
16845;SDS011;8539;53.188;8.696;2023-02-21T13:32:36;20.98;;;12.45;;
16845;SDS011;8539;53.188;8.696;2023-02-21T13:35:04;28.05;;;14.43;;
16845;SDS011;8539;53.188;8.696;2023-02-21T13:37:34;19.23;;;11.60;;
16845;SDS011;8539;53.188;8.696;2023-02-21T13:40:17;19.27;;;11.27;;
16845;SDS011;8539;53.188;8.696;2023-02-21T13:43:29;17.02;;;10.65;;
16845;SDS011;8539;53.188;8.696;2023-02-21T13:57:34;22.70;;;10.50;;
16845;SDS011;8539;53.188;8.696;2023-02-21T14:08:17;21.80;;;12.25;;
16845;SDS011;8539;53.188;8.696;2023-02-21T14:10:51;17.92;;;11.27;;
16845;SDS011;8539;53.188;8.696;2023-02-21T14:16:36;19.50;;;10.77;;
16845;SDS011;8539;53.188;8.696;2023-02-21T14:24:46;16.63;;;11.10;;
16845;SDS011;8539;53.188;8.696;2023-02-21T14:29:45;20.70;;;12.00;;
16845;SDS011;8539;53.188;8.696;2023-02-21T14:32:46;19.85;;;11.43;;
16845;SDS011;8539;53.188;8.696;2023-02-21T14:37:44;18.55;;;12.75;;
16845;SDS011;8539;53.188;8.696;2023-02-21T14:48:38;24.27;;;12.73;;
16845;SDS011;8539;53.188;8.696;2023-02-21T14:59:48;21.83;;;14.63;;
16845;SDS011;8539;53.188;8.696;2023-02-21T15:05:59;24.23;;;14.73;;
16845;SDS011;8539;53.188;8.696;2023-02-21T15:08:39;26.20;;;15.25;;
16845;SDS011;8539;53.188;8.696;2023-02-21T15:11:13;27.30;;;16.45;;
16845;SDS011;8539;53.188;8.696;2023-02-21T15:13:44;29.10;;;16.15;;
16845;SDS011;8539;53.188;8.696;2023-02-21T15:16:11;23.67;;;15.02;;
16845;SDS011;8539;53.188;8.696;2023-02-21T15:18:40;25.52;;;16.63;;
16845;SDS011;8539;53.188;8.696;2023-02-21T15:21:22;27.08;;;16.48;;
16845;SDS011;8539;53.188;8.696;2023-02-21T15:23:58;26.20;;;15.68;;
16845;SDS011;8539;53.188;8.696;2023-02-21T15:26:37;25.55;;;16.58;;
16845;SDS011;8539;53.188;8.696;2023-02-21T15:29:08;26.58;;;15.93;;
16845;SDS011;8539;53.188;8.696;2023-02-21T15:31:42;26.83;;;16.00;;
16845;SDS011;8539;53.188;8.696;2023-02-21T15:34:13;25.02;;;15.20;;
16845;SDS011;8539;53.188;8.696;2023-02-21T15:36:45;30.13;;;16.63;;
16845;SDS011;8539;53.188;8.696;2023-02-21T15:39:19;26.92;;;15.40;;
16845;SDS011;8539;53.188;8.696;2023-02-21T15:44:28;24.98;;;16.23;;
16845;SDS011;8539;53.188;8.696;2023-02-21T15:47:08;24.67;;;15.38;;
16845;SDS011;8539;53.188;8.696;2023-02-21T15:49:42;26.50;;;16.15;;
16845;SDS011;8539;53.188;8.696;2023-02-21T15:52:38;26.15;;;17.60;;
16845;SDS011;8539;53.188;8.696;2023-02-21T15:57:43;36.42;;;18.40;;
16845;SDS011;8539;53.188;8.696;2023-02-21T16:00:22;29.05;;;16.48;;
16845;SDS011;8539;53.188;8.696;2023-02-21T16:03:24;25.58;;;16.10;;
16845;SDS011;8539;53.188;8.696;2023-02-21T16:06:08;24.98;;;16.98;;
16845;SDS011;8539;53.188;8.696;2023-02-21T16:08:38;27.60;;;16.73;;
16845;SDS011;8539;53.188;8.696;2023-02-21T16:11:15;24.52;;;16.00;;
16845;SDS011;8539;53.188;8.696;2023-02-21T16:13:43;25.08;;;17.52;;
16845;SDS011;8539;53.188;8.696;2023-02-21T16:16:09;27.40;;;16.58;;
16845;SDS011;8539;53.188;8.696;2023-02-21T16:18:35;25.98;;;17.10;;
16845;SDS011;8539;53.188;8.696;2023-02-21T16:21:03;27.88;;;16.67;;
16845;SDS011;8539;53.188;8.696;2023-02-21T16:23:33;25.65;;;16.38;;
16845;SDS011;8539;53.188;8.696;2023-02-21T16:28:34;24.27;;;16.60;;
16845;SDS011;8539;53.188;8.696;2023-02-21T16:31:02;31.42;;;18.33;;
16845;SDS011;8539;53.188;8.696;2023-02-21T16:33:31;26.20;;;16.55;;
16845;SDS011;8539;53.188;8.696;2023-02-21T16:35:59;29.73;;;18.45;;
16845;SDS011;8539;53.188;8.696;2023-02-21T16:38:25;28.63;;;17.90;;
16845;SDS011;8539;53.188;8.696;2023-02-21T16:40:52;32.88;;;18.17;;
16845;SDS011;8539;53.188;8.696;2023-02-21T16:43:20;29.17;;;16.58;;
16845;SDS011;8539;53.188;8.696;2023-02-21T16:45:48;26.48;;;17.10;;
16845;SDS011;8539;53.188;8.696;2023-02-21T16:48:20;36.78;;;20.63;;
16845;SDS011;8539;53.188;8.696;2023-02-21T16:50:58;32.22;;;17.85;;
16845;SDS011;8539;53.188;8.696;2023-02-21T16:53:29;29.98;;;18.92;;
16845;SDS011;8539;53.188;8.696;2023-02-21T16:55:56;37.28;;;20.17;;
16845;SDS011;8539;53.188;8.696;2023-02-21T16:58:29;34.60;;;20.88;;
16845;SDS011;8539;53.188;8.696;2023-02-21T17:01:02;37.90;;;21.67;;
16845;SDS011;8539;53.188;8.696;2023-02-21T17:03:31;32.53;;;19.55;;
16845;SDS011;8539;53.188;8.696;2023-02-21T17:05:57;34.60;;;21.05;;
16845;SDS011;8539;53.188;8.696;2023-02-21T17:08:25;34.75;;;22.67;;
16845;SDS011;8539;53.188;8.696;2023-02-21T17:51:37;38.67;;;22.33;;
16845;SDS011;8539;53.188;8.696;2023-02-21T17:54:03;35.90;;;23.27;;
16845;SDS011;8539;53.188;8.696;2023-02-21T17:56:29;35.00;;;23.63;;
16845;SDS011;8539;53.188;8.696;2023-02-21T17:58:55;34.92;;;22.80;;
16845;SDS011;8539;53.188;8.696;2023-02-21T18:01:23;37.95;;;22.65;;
16845;SDS011;8539;53.188;8.696;2023-02-21T18:03:49;40.33;;;25.33;;
16845;SDS011;8539;53.188;8.696;2023-02-21T18:06:16;38.42;;;22.67;;
16845;SDS011;8539;53.188;8.696;2023-02-21T18:08:42;39.25;;;25.05;;
16845;SDS011;8539;53.188;8.696;2023-02-21T18:11:12;37.58;;;22.75;;
16845;SDS011;8539;53.188;8.696;2023-02-21T18:13:40;43.80;;;25.15;;
16845;SDS011;8539;53.188;8.696;2023-02-21T18:16:06;35.15;;;23.00;;
16845;SDS011;8539;53.188;8.696;2023-02-21T18:18:33;36.35;;;23.25;;
16845;SDS011;8539;53.188;8.696;2023-02-21T18:21:00;37.33;;;22.13;;
16845;SDS011;8539;53.188;8.696;2023-02-21T18:23:30;40.55;;;24.52;;
16845;SDS011;8539;53.188;8.696;2023-02-21T18:25:57;35.97;;;21.92;;
16845;SDS011;8539;53.188;8.696;2023-02-21T18:28:23;40.50;;;24.58;;
16845;SDS011;8539;53.188;8.696;2023-02-21T18:30:49;37.53;;;23.00;;
16845;SDS011;8539;53.188;8.696;2023-02-21T18:33:20;35.88;;;21.48;;
16845;SDS011;8539;53.188;8.696;2023-02-21T18:35:47;37.50;;;22.70;;
16845;SDS011;8539;53.188;8.696;2023-02-21T18:38:14;36.33;;;22.92;;
16845;SDS011;8539;53.188;8.696;2023-02-21T18:40:44;37.33;;;22.75;;
16845;SDS011;8539;53.188;8.696;2023-02-21T18:43:29;33.95;;;23.08;;
16845;SDS011;8539;53.188;8.696;2023-02-21T18:45:56;40.35;;;24.67;;
16845;SDS011;8539;53.188;8.696;2023-02-21T18:48:23;36.53;;;23.38;;
16845;SDS011;8539;53.188;8.696;2023-02-21T18:50:50;40.38;;;24.13;;
16845;SDS011;8539;53.188;8.696;2023-02-21T18:53:16;37.25;;;23.08;;
16845;SDS011;8539;53.188;8.696;2023-02-21T18:55:43;38.17;;;24.35;;
16845;SDS011;8539;53.188;8.696;2023-02-21T18:58:09;37.78;;;22.23;;
16845;SDS011;8539;53.188;8.696;2023-02-21T19:00:36;36.33;;;23.17;;